CST,Max TemperatureF,Mean TemperatureF,Min TemperatureF,Max Dew PointF,MeanDew PointF,Min DewpointF,Max Humidity, Mean Humidity, Min Humidity, Max Sea Level PressureIn, Mean Sea Level PressureIn, Min Sea Level PressureIn, Max VisibilityMiles, Mean VisibilityMiles, Min VisibilityMiles, Max Wind SpeedMPH, Mean Wind SpeedMPH, Max Gust SpeedMPH,PrecipitationIn, CloudCover, Events, WindDirDegrees
2011-11-1,70,60,49,48,43,36,77,55,33,30.27,30.22,30.19,10,10,10,13,6,17,0.00,0,,80
2011-11-2,72,63,53,58,51,43,84,67,49,30.29,30.22,30.17,10,10,10,15,8,18,0.00,0,,99
2011-11-3,78,63,47,67,57,39,100,80,60,30.16,30.04,29.94,10,10,8,30,13,40,T,4,,193
2011-11-4,63,53,42,45,42,38,89,69,48,30.11,30.06,30.02,10,10,10,18,9,55,0.00,1,,334
2011-11-5,72,60,48,47,43,35,86,57,27,30.21,30.15,30.11,10,10,10,13,7,20,0.00,0,,55
2011-11-6,74,62,50,55,48,39,84,67,49,30.30,30.23,30.19,10,10,10,17,7,31,0.00,2,,64
2011-11-7,74,66,57,61,58,54,90,76,61,30.29,30.22,30.15,10,10,10,14,6,18,0.00,1,,98
2011-11-8,76,69,61,64,61,59,100,82,64,30.18,30.11,30.06,10,10,10,16,7,22,0.00,0,,102
2011-11-9,75,65,55,68,62,55,100,90,79,30.10,30.04,29.98,10,9,5,21,8,26,0.09,6,Rain,69
2011-11-10,59,53,46,55,37,27,100,69,38,30.22,30.13,30.03,10,10,10,24,15,33,T,1,,346
2011-11-11,65,51,36,38,30,24,71,47,22,30.32,30.25,30.21,10,10,10,15,5,23,0.00,0,,338
2011-11-12,68,54,39,54,44,36,92,67,42,30.32,30.25,30.19,10,10,10,15,6,20,0.00,1,,68
2011-11-13,76,66,55,65,60,53,93,81,68,30.19,30.13,30.08,10,10,10,16,9,21,0.00,6,,113
2011-11-14,79,73,66,70,67,64,100,86,71,30.11,30.05,30.00,10,9,4,17,9,21,0.00,7,,135
2011-11-15,76,71,65,72,69,64,100,98,87,30.01,29.95,29.90,10,7,1,17,10,37,0.44,7,Rain,148
2011-11-16,77,72,66,73,68,63,100,82,64,29.94,29.88,29.83,10,9,7,32,12,47,0.08,5,Rain,215
2011-11-17,66,56,46,66,46,27,100,65,30,30.30,30.14,29.95,10,10,10,24,14,31,0.00,3,,347
2011-11-18,61,51,41,52,41,27,80,63,45,30.34,30.27,30.20,10,10,10,16,7,21,0.00,2,,75
2011-11-19,65,61,56,64,58,51,100,88,75,30.24,30.20,30.16,10,8,1,14,7,18,0.09,7,Rain,70
2011-11-20,75,69,62,70,56,27,100,60,19,30.28,30.22,30.18,10,6,0,13,5,16,0.00,5,Fog,98
2011-11-21,78,70,61,71,66,63,100,88,76,30.26,30.18,30.11,10,6,0,13,5,15,0.01,3,Fog,120
2011-11-22,81,74,66,72,69,65,100,85,69,30.11,30.06,30.00,10,5,0,20,8,24,0.36,6,Fog-Rain,154
2011-11-23,71,62,53,70,58,47,93,71,49,30.22,30.10,30.01,10,10,5,16,9,23,0.22,4,Rain-Thunderstorm,343
2011-11-24,69,59,49,47,44,42,83,60,37,30.32,30.27,30.20,10,10,10,13,6,18,0.00,0,,41
2011-11-25,71,62,52,57,51,43,89,73,57,30.30,30.23,30.15,10,10,10,17,9,23,0.00,2,,98
2011-11-26,75,70,64,66,62,57,87,78,68,30.17,30.10,30.01,10,10,9,26,14,36,T,5,Rain,118
2011-11-27,71,61,50,67,62,47,93,86,79,30.00,29.92,29.85,10,7,1,21,11,30,0.47,8,Rain,227
2011-11-28,53,47,41,48,41,35,93,74,54,30.01,29.94,29.91,10,10,8,20,11,24,0.04,6,Rain,289
2011-11-29,60,49,37,38,35,32,85,61,37,30.13,30.03,29.96,10,10,10,22,10,29,0.00,1,,309
2011-11-30,55,46,37,37,35,32,79,63,47,30.21,30.16,30.11,10,10,10,17,8,21,0.00,2,,351